Terminal Aerodrome Forecast
Issued by NWS

Current Version | Previous Version | Text Only | Print | Product List | Glossary Off
Versions: 1 2 3 4 5 6 7 8 9 10 11 12 13 14 15 16 17

000
FTUS41 KPBZ 262320
TAFMGW
TAF
KMGW 262320Z 2700/2724 25005KT P6SM OVC100
     FM270800 VRB01KT 5SM BR SCT100
     FM271300 32003KT P6SM BKN250=

USA.gov is the U.S. government's official web portal to all federal, state and local government web resources and services.